createdAt,value
2022-09-10T00:01:00.823Z,97447.94
2022-09-10T00:03:27.702Z,97449.03
2022-09-10T00:05:54.122Z,97451.31
2022-09-10T00:08:21.166Z,97442.75
2022-09-10T00:10:51.836Z,97446.13
2022-09-10T00:13:21.879Z,97450.84
2022-09-10T00:15:52.115Z,97443.16
2022-09-10T00:18:20.718Z,97441.94
2022-09-10T00:20:50.562Z,97440.47
2022-09-10T00:23:19.382Z,97437.84
2022-09-10T00:25:46.998Z,97433.00
2022-09-10T00:28:13.885Z,97435.97
2022-09-10T00:30:48.879Z,97439.47
2022-09-10T00:33:17.238Z,97442.75
2022-09-10T00:35:44.616Z,97435.81
2022-09-10T00:38:12.703Z,97441.47
2022-09-10T00:40:40.374Z,97434.56
2022-09-10T00:43:18.754Z,97439.94
2022-09-10T00:45:48.278Z,97428.84
2022-09-10T00:48:19.212Z,97438.56
2022-09-10T00:50:51.742Z,97444.22
2022-09-10T00:53:23.211Z,97432.28
2022-09-10T00:55:53.981Z,97433.06
2022-09-10T00:58:22.308Z,97442.84
2022-09-10T01:00:48.984Z,97436.81
2022-09-10T01:03:16.876Z,97429.34
2022-09-10T01:05:45.998Z,97434.53
2022-09-10T01:08:14.540Z,97429.41
2022-09-10T01:10:59.970Z,97420.03
2022-09-10T01:13:43.634Z,97418.03
2022-09-10T01:16:42.741Z,97420.47
2022-09-10T01:19:47.006Z,97429.16
2022-09-10T01:22:32.537Z,97433.22
2022-09-10T01:25:17.580Z,97437.72
2022-09-10T01:27:57.758Z,97429.25
2022-09-10T01:30:45.331Z,97429.00
2022-09-10T01:33:34.632Z,97432.66
2022-09-10T01:36:09.576Z,97430.25
2022-09-10T01:38:38.728Z,97426.22
2022-09-10T01:41:05.646Z,97425.91
2022-09-10T01:43:32.045Z,97427.66
2022-09-10T01:46:16.766Z,97434.16
2022-09-10T01:49:14.039Z,97430.19
2022-09-10T01:52:25.377Z,97425.59
2022-09-10T01:55:17.197Z,97421.41
2022-09-10T01:58:05.040Z,97422.84
2022-09-10T02:00:34.033Z,97410.63
2022-09-10T02:03:00.426Z,97419.53
2022-09-10T02:05:29.798Z,97411.94
2022-09-10T02:08:01.927Z,97415.97
2022-09-10T02:10:28.816Z,97404.53
2022-09-10T02:12:55.915Z,97410.09
2022-09-10T02:15:26.255Z,97406.06
2022-09-10T02:17:53.685Z,97406.56
2022-09-10T02:20:22.078Z,97407.34
2022-09-10T02:22:55.146Z,97409.56
2022-09-10T02:25:21.603Z,97407.00
2022-09-10T02:27:48.983Z,97414.47
2022-09-10T02:30:16.912Z,97423.25
2022-09-10T02:32:43.357Z,97421.78
2022-09-10T02:35:09.851Z,97409.56
2022-09-10T02:37:36.370Z,97408.47
2022-09-10T02:40:03.605Z,97403.84
2022-09-10T02:42:30.026Z,97398.88
2022-09-10T02:44:56.602Z,97406.66
2022-09-10T02:47:23.170Z,97396.53
2022-09-10T02:49:49.569Z,97395.88
2022-09-10T02:52:16.005Z,97399.63
2022-09-10T02:54:42.403Z,97404.25
2022-09-10T02:57:08.817Z,97399.97
2022-09-10T02:59:35.288Z,97399.72
2022-09-10T03:02:01.781Z,97412.34
2022-09-10T03:04:28.186Z,97402.31
2022-09-10T03:06:55.387Z,97405.00
2022-09-10T03:09:22.811Z,97400.38
2022-09-10T03:11:50.021Z,97396.63
2022-09-10T03:14:20.330Z,97396.19
2022-09-10T03:16:47.681Z,97401.56
2022-09-10T03:19:14.879Z,97400.47
2022-09-10T03:21:41.889Z,97397.13
2022-09-10T03:24:10.308Z,97393.09
2022-09-10T03:26:36.806Z,97393.84
2022-09-10T03:29:03.377Z,97391.78
2022-09-10T03:31:30.938Z,97391.44
2022-09-10T03:33:57.899Z,97393.72
2022-09-10T03:36:24.365Z,97401.47
2022-09-10T03:38:50.857Z,97394.28
2022-09-10T03:41:17.275Z,97400.22
2022-09-10T03:43:43.692Z,97392.59
2022-09-10T03:46:12.026Z,97388.47
2022-09-10T03:48:39.726Z,97390.66
2022-09-10T03:51:06.410Z,97393.97
2022-09-10T03:53:32.874Z,97394.84
2022-09-10T03:55:59.291Z,97392.81
2022-09-10T03:58:26.758Z,97401.38
2022-09-10T04:00:53.214Z,97392.41
2022-09-10T04:03:20.265Z,97400.00
2022-09-10T04:05:47.229Z,97401.56
2022-09-10T04:08:14.908Z,97397.63
2022-09-10T04:10:43.032Z,97401.25
2022-09-10T04:13:10.395Z,97403.00
2022-09-10T04:15:37.596Z,97410.81
2022-09-10T04:18:06.046Z,97414.31
2022-09-10T04:20:33.484Z,97412.22
2022-09-10T04:23:00.311Z,97416.66
2022-09-10T04:25:27.646Z,97409.31
2022-09-10T04:27:54.569Z,97415.50
2022-09-10T04:30:20.967Z,97401.94
2022-09-10T04:32:47.501Z,97403.38
2022-09-10T04:35:17.023Z,97406.22
2022-09-10T04:37:43.437Z,97404.59
2022-09-10T04:40:10.542Z,97413.16
2022-09-10T04:42:38.191Z,97424.22
2022-09-10T04:45:06.137Z,97421.34
2022-09-10T04:47:33.971Z,97424.31
2022-09-10T04:50:00.519Z,97427.59
2022-09-10T04:52:27.906Z,97427.50
2022-09-10T04:54:54.363Z,97433.78
2022-09-10T04:57:20.917Z,97439.03
2022-09-10T04:59:47.311Z,97433.69
2022-09-10T05:02:13.792Z,97438.50
2022-09-10T05:04:41.051Z,97444.19
2022-09-10T05:07:07.445Z,97445.13
2022-09-10T05:09:33.881Z,97443.81
2022-09-10T05:12:01.180Z,97446.22
2022-09-10T05:14:28.091Z,97438.16
2022-09-10T05:16:55.259Z,97440.81
2022-09-10T05:19:22.225Z,97436.91
2022-09-10T05:21:49.035Z,97434.16
2022-09-10T05:24:16.503Z,97426.50
2022-09-10T05:26:44.008Z,97422.94
2022-09-10T05:29:11.487Z,97428.03
2022-09-10T05:31:38.106Z,97443.75
2022-09-10T05:34:04.623Z,97439.81
2022-09-10T05:36:32.090Z,97444.09
2022-09-10T05:39:00.338Z,97457.22
2022-09-10T05:41:28.151Z,97450.38
2022-09-10T05:43:54.940Z,97443.19
2022-09-10T05:46:22.307Z,97429.28
2022-09-10T05:48:49.077Z,97439.56
2022-09-10T05:51:16.029Z,97439.56
2022-09-10T05:53:42.418Z,97427.13
2022-09-10T05:56:09.093Z,97426.34
2022-09-10T05:58:35.612Z,97432.81
2022-09-10T06:01:02.119Z,97436.66
2022-09-10T06:03:28.527Z,97442.16
2022-09-10T06:05:55.690Z,97447.03
2022-09-10T06:08:22.942Z,97443.69
2022-09-10T06:10:57.214Z,97451.88
2022-09-10T06:13:24.549Z,97451.31
2022-09-10T06:15:50.939Z,97453.34
2022-09-10T06:18:17.685Z,97452.19
2022-09-10T06:20:44.171Z,97457.50
2022-09-10T06:23:12.100Z,97461.63
2022-09-10T06:25:38.669Z,97457.88
2022-09-10T06:28:05.071Z,97454.41
2022-09-10T06:30:31.475Z,97463.56
2022-09-10T06:32:57.921Z,97458.41
2022-09-10T06:35:25.454Z,97461.81
2022-09-10T06:37:51.846Z,97468.88
2022-09-10T06:40:18.702Z,97469.09
2022-09-10T06:42:45.138Z,97469.63
2022-09-10T06:45:11.798Z,97462.75
2022-09-10T06:50:24.582Z,97452.09
2022-09-10T06:52:51.543Z,97464.66
2022-09-10T06:55:18.320Z,97464.59
2022-09-10T06:57:44.720Z,97473.72
2022-09-10T07:00:11.781Z,97474.41
2022-09-10T07:02:38.221Z,97473.63
2022-09-10T07:05:04.927Z,97474.28
2022-09-10T07:07:31.360Z,97476.28
2022-09-10T07:09:57.770Z,97475.47
2022-09-10T07:12:24.164Z,97475.25
2022-09-10T07:14:50.555Z,97477.75
2022-09-10T07:17:16.964Z,97478.75
2022-09-10T07:19:43.447Z,97481.31
2022-09-10T07:22:09.901Z,97481.19
2022-09-10T07:24:36.299Z,97477.63
2022-09-10T07:27:02.909Z,97479.50
2022-09-10T07:29:31.084Z,97487.66
2022-09-10T07:31:57.538Z,97487.75
2022-09-10T07:34:24.202Z,97489.44
2022-09-10T07:36:50.707Z,97491.44
2022-09-10T07:39:17.111Z,97500.16
2022-09-10T07:41:43.580Z,97496.41
2022-09-10T07:44:10.012Z,97493.22
2022-09-10T07:46:37.933Z,97501.47
2022-09-10T07:49:04.939Z,97495.50
2022-09-10T07:51:33.000Z,97499.59
2022-09-10T07:53:59.673Z,97493.94
2022-09-10T07:56:26.278Z,97502.13
2022-09-10T07:58:53.866Z,97505.84
2022-09-10T08:01:20.425Z,97496.69
2022-09-10T08:03:47.075Z,97503.97
2022-09-10T08:06:14.402Z,97500.31
2022-09-10T08:08:41.624Z,97514.44
2022-09-10T08:11:13.644Z,97499.84
2022-09-10T08:13:41.550Z,97512.47
2022-09-10T08:16:10.229Z,97513.16
2022-09-10T08:18:37.456Z,97519.75
2022-09-10T08:21:05.155Z,97519.59
2022-09-10T08:23:31.852Z,97523.13
2022-09-10T08:25:58.310Z,97528.84
2022-09-10T08:28:27.234Z,97528.78
2022-09-10T08:31:04.601Z,97525.00
2022-09-10T08:33:35.229Z,97532.84
2022-09-10T08:36:03.050Z,97532.44
2022-09-10T08:38:39.800Z,97529.19
2022-09-10T08:41:35.743Z,97532.66
2022-09-10T08:44:06.323Z,97537.56
2022-09-10T08:46:49.755Z,97540.59
2022-09-10T08:49:34.191Z,97544.91
2022-09-10T08:52:07.233Z,97546.81
2022-09-10T08:55:03.210Z,97545.56
2022-09-10T08:57:36.706Z,97546.31
2022-09-10T09:00:04.191Z,97538.38
2022-09-10T09:02:49.181Z,97544.81
2022-09-10T09:05:17.943Z,97549.00
2022-09-10T09:07:45.139Z,97542.72
2022-09-10T09:10:20.360Z,97536.34
2022-09-10T09:13:06.388Z,97538.59
2022-09-10T09:15:51.652Z,97548.25
2022-09-10T09:18:33.151Z,97553.97
2022-09-10T09:21:17.167Z,97554.72
2022-09-10T09:24:12.649Z,97553.03
2022-09-10T09:26:44.694Z,97554.34
2022-09-10T09:29:18.989Z,97553.91
2022-09-10T09:31:59.671Z,97551.88
2022-09-10T09:34:50.496Z,97555.59
2022-09-10T09:37:21.432Z,97548.53
2022-09-10T09:40:06.853Z,97548.88
2022-09-10T09:42:52.995Z,97540.28
2022-09-10T09:45:28.461Z,97547.19
2022-09-10T09:47:55.905Z,97540.03
2022-09-10T09:50:23.029Z,97535.25
2022-09-10T09:52:56.332Z,97539.09
2022-09-10T09:55:40.443Z,97534.09
2022-09-10T09:58:22.001Z,97533.53
2022-09-10T10:00:52.674Z,97524.72
2022-09-10T10:03:25.308Z,97528.47
2022-09-10T10:06:02.326Z,97518.31
2022-09-10T10:08:33.557Z,97523.25
2022-09-10T10:11:00.422Z,97521.56
2022-09-10T10:13:39.869Z,97526.31
2022-09-10T10:16:33.758Z,97515.88
2022-09-10T10:19:00.145Z,97518.00
2022-09-10T10:21:34.778Z,97521.81
2022-09-10T10:24:01.477Z,97511.66
2022-09-10T10:26:33.606Z,97505.72
2022-09-10T10:29:06.567Z,97511.19
2022-09-10T10:31:40.565Z,97513.56
2022-09-10T10:34:09.787Z,97506.56
2022-09-10T10:37:09.142Z,97508.88
2022-09-10T10:39:50.874Z,97498.22
2022-09-10T10:42:40.434Z,97506.28
2022-09-10T10:45:36.602Z,97503.31
2022-09-10T10:48:25.881Z,97494.13
2022-09-10T10:51:18.054Z,97487.72
2022-09-10T10:53:56.579Z,97487.19
2022-09-10T10:56:40.459Z,97486.84
2022-09-10T10:59:23.677Z,97486.63
2022-09-10T11:01:59.888Z,97484.53
2022-09-10T11:04:31.671Z,97490.53
2022-09-10T11:07:11.314Z,97471.59
2022-09-10T11:09:48.968Z,97471.81
2022-09-10T11:12:23.667Z,97469.81
2022-09-10T11:15:03.428Z,97463.69
2022-09-10T11:17:39.346Z,97471.47
2022-09-10T11:20:29.148Z,97469.28
2022-09-10T11:23:06.032Z,97474.25
2022-09-10T11:25:39.522Z,97464.97
2022-09-10T11:28:22.260Z,97470.47
2022-09-10T11:30:57.844Z,97466.44
2022-09-10T11:33:33.355Z,97462.28
2022-09-10T11:36:11.703Z,97466.28
2022-09-10T11:38:48.225Z,97468.94
2022-09-10T11:41:22.933Z,97464.00
2022-09-10T11:43:54.380Z,97460.88
2022-09-10T11:46:43.880Z,97467.81
2022-09-10T11:49:18.486Z,97465.41
2022-09-10T11:51:46.037Z,97464.50
2022-09-10T11:54:18.672Z,97458.13
2022-09-10T11:57:16.754Z,97455.84
2022-09-10T12:00:09.597Z,97455.19
2022-09-10T12:02:49.944Z,97444.94
2022-09-10T12:05:24.354Z,97444.66
2022-09-10T12:08:13.768Z,97449.31
2022-09-10T12:11:17.994Z,97442.88
2022-09-10T12:13:46.245Z,97455.09
2022-09-10T12:16:32.840Z,97443.44
2022-09-10T12:19:01.566Z,97440.88
2022-09-10T12:21:41.338Z,97441.59
2022-09-10T12:24:25.726Z,97436.09
2022-09-10T12:26:54.284Z,97432.06
2022-09-10T12:29:35.892Z,97427.28
2022-09-10T12:32:08.374Z,97427.66
2022-09-10T12:34:36.156Z,97428.06
2022-09-10T12:37:02.474Z,97418.28
2022-09-10T12:39:29.958Z,97418.59
2022-09-10T12:42:02.312Z,97406.13
2022-09-10T12:44:35.032Z,97402.56
2022-09-10T12:47:45.136Z,97414.34
2022-09-10T12:50:29.815Z,97416.56
2022-09-10T12:53:26.726Z,97430.81
2022-09-10T12:56:15.673Z,97441.78
2022-09-10T12:59:17.373Z,97476.91
2022-09-10T13:01:47.752Z,97482.94
2022-09-10T13:04:35.011Z,97488.47
2022-09-10T13:07:24.073Z,97468.16
2022-09-10T13:10:21.050Z,97478.06
2022-09-10T13:12:55.225Z,97480.91
2022-09-10T13:15:25.203Z,97478.38
2022-09-10T13:17:51.645Z,97485.44
2022-09-10T13:20:21.112Z,97483.75
2022-09-10T13:23:03.960Z,97472.19
2022-09-10T13:25:44.717Z,97476.34
2022-09-10T13:28:35.504Z,97472.34
2022-09-10T13:31:14.010Z,97481.78
2022-09-10T13:33:49.537Z,97475.91
2022-09-10T13:36:36.439Z,97471.09
2022-09-10T13:39:08.764Z,97471.84
2022-09-10T13:41:41.215Z,97476.03
2022-09-10T13:44:38.280Z,97476.88
2022-09-10T13:47:19.173Z,97484.19
2022-09-10T13:49:56.375Z,97493.97
2022-09-10T13:52:30.956Z,97490.31
2022-09-10T13:54:59.815Z,97473.28
2022-09-10T13:57:40.823Z,97468.38
2022-09-10T14:00:23.712Z,97468.47
2022-09-10T14:02:56.644Z,97462.63
2022-09-10T14:05:49.469Z,97456.06
2022-09-10T14:08:23.461Z,97444.78
2022-09-10T14:11:06.513Z,97443.09
2022-09-10T14:13:41.377Z,97443.69
2022-09-10T14:16:15.984Z,97432.16
2022-09-10T14:18:48.459Z,97430.16
2022-09-10T14:21:17.172Z,97430.66
2022-09-10T14:23:48.307Z,97418.31
2022-09-10T14:26:24.726Z,97421.09
2022-09-10T14:28:52.935Z,97420.31
2022-09-10T14:31:25.505Z,97419.66
2022-09-10T14:33:58.478Z,97419.34
2022-09-10T14:36:27.951Z,97418.06
2022-09-10T14:39:13.260Z,97408.28
2022-09-10T14:41:40.218Z,97412.91
2022-09-10T14:44:22.293Z,97420.56
2022-09-10T14:46:54.256Z,97420.38
2022-09-10T14:49:47.058Z,97420.69
2022-09-10T14:52:14.566Z,97427.19
2022-09-10T14:54:41.124Z,97420.41
2022-09-10T14:57:14.667Z,97421.38
2022-09-10T14:59:43.700Z,97417.38
2022-09-10T15:02:25.110Z,97426.59
2022-09-10T15:04:51.695Z,97426.47
2022-09-10T15:07:18.959Z,97421.75
2022-09-10T15:09:46.833Z,97434.94
2022-09-10T15:12:23.922Z,97437.06
2022-09-10T15:14:51.102Z,97435.41
2022-09-10T15:17:17.775Z,97426.03
2022-09-10T15:19:45.112Z,97422.66
2022-09-10T15:22:23.385Z,97426.66
2022-09-10T15:25:08.705Z,97424.63
2022-09-10T15:27:36.185Z,97420.22
2022-09-10T15:30:02.828Z,97424.81
2022-09-10T15:32:30.757Z,97429.13
2022-09-10T15:34:57.643Z,97426.66
2022-09-10T15:37:24.286Z,97417.41
2022-09-10T15:39:51.671Z,97414.09
2022-09-10T15:42:18.141Z,97413.75
2022-09-10T15:44:44.523Z,97416.22
2022-09-10T15:47:10.917Z,97403.00
2022-09-10T15:49:37.356Z,97409.63
2022-09-10T15:52:03.774Z,97409.78
2022-09-10T15:54:30.177Z,97400.41
2022-09-10T15:56:56.600Z,97401.47
2022-09-10T15:59:23.113Z,97399.66
2022-09-10T16:01:50.191Z,97405.16
2022-09-10T16:04:16.738Z,97410.09
2022-09-10T16:06:43.767Z,97412.53
2022-09-10T16:09:12.875Z,97415.75
2022-09-10T16:11:41.144Z,97418.97
2022-09-10T16:14:11.733Z,97414.22
2022-09-10T16:16:38.372Z,97421.59
2022-09-10T16:19:06.049Z,97416.38
2022-09-10T16:21:36.218Z,97428.94
2022-09-10T16:24:03.555Z,97415.59
2022-09-10T16:26:36.392Z,97418.97
2022-09-10T16:29:12.205Z,97418.34
2022-09-10T16:31:41.402Z,97427.41
2022-09-10T16:34:10.951Z,97429.72
2022-09-10T16:36:38.398Z,97429.72
2022-09-10T16:39:11.946Z,97426.16
2022-09-10T16:41:43.734Z,97426.91
2022-09-10T16:44:11.348Z,97430.28
2022-09-10T16:46:38.678Z,97429.50
2022-09-10T16:49:05.899Z,97421.06
2022-09-10T16:51:35.031Z,97428.41
2022-09-10T16:54:04.612Z,97430.84
2022-09-10T16:56:35.318Z,97421.34
2022-09-10T16:59:01.795Z,97421.59
2022-09-10T17:01:28.452Z,97429.75
2022-09-10T17:03:55.225Z,97422.19
2022-09-10T17:06:27.315Z,97422.53
2022-09-10T17:08:55.856Z,97432.03
2022-09-10T17:11:22.882Z,97424.75
2022-09-10T17:13:50.916Z,97427.50
2022-09-10T17:16:32.589Z,97435.28
2022-09-10T17:19:00.831Z,97428.53
2022-09-10T17:21:29.409Z,97436.38
2022-09-10T17:23:56.373Z,97435.44
2022-09-10T17:26:24.233Z,97427.63
2022-09-10T17:29:12.738Z,97431.16
2022-09-10T17:31:39.616Z,97434.38
2022-09-10T17:34:06.520Z,97436.22
2022-09-10T17:36:34.277Z,97438.00
2022-09-10T17:39:00.752Z,97436.31
2022-09-10T17:41:29.048Z,97430.91
2022-09-10T17:43:57.915Z,97441.69
2022-09-10T17:46:24.470Z,97442.00
2022-09-10T17:48:52.040Z,97448.75
2022-09-10T17:51:21.369Z,97456.69
2022-09-10T17:53:48.408Z,97457.28
2022-09-10T17:56:18.877Z,97460.69
2022-09-10T17:58:47.290Z,97469.03
2022-09-10T18:01:23.150Z,97476.09
2022-09-10T18:03:50.432Z,97481.91
2022-09-10T18:06:17.123Z,97484.53
2022-09-10T18:08:44.078Z,97485.44
2022-09-10T18:11:16.487Z,97484.94
2022-09-10T18:13:44.538Z,97488.16
2022-09-10T18:16:14.734Z,97492.66
2022-09-10T18:18:41.171Z,97489.44
2022-09-10T18:21:25.898Z,97492.38
2022-09-10T18:24:00.666Z,97485.59
2022-09-10T18:26:29.350Z,97495.34
2022-09-10T18:29:02.034Z,97490.44
2022-09-10T18:31:35.113Z,97501.50
2022-09-10T18:34:02.040Z,97500.88
2022-09-10T18:36:28.904Z,97491.75
2022-09-10T18:38:55.414Z,97498.56
2022-09-10T18:41:27.725Z,97512.03
2022-09-10T18:43:57.826Z,97512.81
2022-09-10T18:46:26.022Z,97519.75
2022-09-10T18:48:53.390Z,97520.56
2022-09-10T18:51:22.941Z,97522.56
2022-09-10T18:53:53.525Z,97529.94
2022-09-10T18:56:23.298Z,97516.38
2022-09-10T18:58:59.265Z,97523.56
2022-09-10T19:01:28.293Z,97528.31
2022-09-10T19:03:57.507Z,97531.38
2022-09-10T19:06:26.218Z,97536.47
2022-09-10T19:08:58.918Z,97535.56
2022-09-10T19:11:30.216Z,97526.03
2022-09-10T19:13:57.342Z,97539.81
2022-09-10T19:16:28.622Z,97536.81
2022-09-10T19:18:57.173Z,97527.13
2022-09-10T19:21:25.127Z,97527.47
2022-09-10T19:23:55.198Z,97534.09
2022-09-10T19:26:25.066Z,97526.47
2022-09-10T19:28:52.364Z,97519.53
2022-09-10T19:31:20.695Z,97520.63
2022-09-10T19:33:48.001Z,97518.22
2022-09-10T19:36:17.574Z,97518.75
2022-09-10T19:38:46.913Z,97518.75
2022-09-10T19:41:18.784Z,97522.97
2022-09-10T19:43:50.595Z,97519.53
2022-09-10T19:46:19.384Z,97525.50
2022-09-10T19:48:46.944Z,97520.31
2022-09-10T19:51:16.476Z,97524.41
2022-09-10T19:53:43.113Z,97529.66
2022-09-10T19:56:19.611Z,97518.13
2022-09-10T19:58:49.722Z,97526.59
2022-09-10T20:01:22.303Z,97526.72
2022-09-10T20:03:50.683Z,97522.53
2022-09-10T20:06:19.415Z,97521.19
2022-09-10T20:08:48.074Z,97525.72
2022-09-10T20:11:23.080Z,97525.94
2022-09-10T20:13:53.168Z,97521.09
2022-09-10T20:16:19.618Z,97524.59
2022-09-10T20:18:46.666Z,97530.56
2022-09-10T20:21:22.635Z,97530.56
2022-09-10T20:23:51.507Z,97533.00
2022-09-10T20:26:22.789Z,97530.56
2022-09-10T20:28:55.734Z,97537.50
2022-09-10T20:31:23.852Z,97532.00
2022-09-10T20:33:54.886Z,97538.94
2022-09-10T20:36:22.852Z,97540.69
2022-09-10T20:38:50.535Z,97534.53
2022-09-10T20:41:17.132Z,97531.78
2022-09-10T20:43:43.766Z,97529.03
2022-09-10T20:46:17.988Z,97525.50
2022-09-10T20:48:49.049Z,97527.94
2022-09-10T20:51:18.003Z,97529.69
2022-09-10T20:53:44.969Z,97533.66
2022-09-10T20:56:17.559Z,97526.69
2022-09-10T20:58:45.169Z,97537.69
2022-09-10T21:01:12.543Z,97532.31
2022-09-10T21:03:41.036Z,97539.69
2022-09-10T21:06:10.867Z,97529.09
2022-09-10T21:08:39.094Z,97537.81
2022-09-10T21:11:08.634Z,97537.03
2022-09-10T21:13:36.469Z,97545.41
2022-09-10T21:16:15.690Z,97541.00
2022-09-10T21:18:42.779Z,97537.50
2022-09-10T21:21:14.411Z,97544.31
2022-09-10T21:23:49.459Z,97542.44
2022-09-10T21:26:18.743Z,97552.59
2022-09-10T21:28:45.134Z,97547.72
2022-09-10T21:31:15.031Z,97549.72
2022-09-10T21:33:42.609Z,97542.44
2022-09-10T21:36:13.222Z,97548.06
2022-09-10T21:38:40.473Z,97551.25
2022-09-10T21:41:11.958Z,97562.91
2022-09-10T21:43:43.265Z,97553.13
2022-09-10T21:46:10.535Z,97550.03
2022-09-10T21:48:37.272Z,97550.03
2022-09-10T21:51:06.546Z,97552.78
2022-09-10T21:53:34.306Z,97556.75
2022-09-10T21:56:02.875Z,97553.00
2022-09-10T21:58:32.418Z,97554.53
2022-09-10T22:00:59.529Z,97542.41
2022-09-10T22:03:31.496Z,97544.53
2022-09-10T22:06:25.506Z,97541.66
2022-09-10T22:08:55.157Z,97541.31
2022-09-10T22:11:24.210Z,97540.66
2022-09-10T22:13:53.528Z,97540.56
2022-09-10T22:16:22.577Z,97533.06
2022-09-10T22:18:50.113Z,97538.91
2022-09-10T22:21:17.444Z,97546.63
2022-09-10T22:23:44.597Z,97537.16
2022-09-10T22:26:16.662Z,97537.81
2022-09-10T22:28:44.560Z,97543.31
2022-09-10T22:31:15.601Z,97545.97
2022-09-10T22:33:44.794Z,97539.34
2022-09-10T22:36:20.307Z,97543.19
2022-09-10T22:38:55.077Z,97550.16
2022-09-10T22:41:22.911Z,97549.47
2022-09-10T22:43:50.082Z,97544.31
2022-09-10T22:46:17.491Z,97547.75
2022-09-10T22:48:45.510Z,97540.69
2022-09-10T22:51:17.773Z,97536.06
2022-09-10T22:53:45.581Z,97546.19
2022-09-10T22:56:14.190Z,97544.88
2022-09-10T22:58:41.134Z,97546.97
2022-09-10T23:01:12.800Z,97545.63
2022-09-10T23:03:40.278Z,97545.22
2022-09-10T23:06:08.391Z,97540.47
2022-09-10T23:08:36.285Z,97540.03
2022-09-10T23:11:17.058Z,97537.41
2022-09-10T23:13:46.163Z,97534.53
2022-09-10T23:16:18.288Z,97537.84
2022-09-10T23:18:50.540Z,97534.75
2022-09-10T23:21:23.408Z,97534.09
2022-09-10T23:23:52.621Z,97544.78
2022-09-10T23:26:20.501Z,97548.38
2022-09-10T23:28:47.028Z,97542.03
2022-09-10T23:31:22.441Z,97550.81
2022-09-10T23:33:58.430Z,97547.53
2022-09-10T23:36:31.358Z,97547.97
2022-09-10T23:39:07.046Z,97547.84
2022-09-10T23:41:34.381Z,97557.66
2022-09-10T23:44:01.053Z,97552.16
2022-09-10T23:46:27.513Z,97553.03
2022-09-10T23:48:54.466Z,97553.56
2022-09-10T23:51:21.264Z,97544.22
2022-09-10T23:53:48.760Z,97554.47
2022-09-10T23:56:17.006Z,97548.41
2022-09-10T23:58:43.580Z,97546.53
